Flight Track Log - Related Links

Times and Time Zones

All times are in EDT time to prevent confusion due to time zone crossing. See the UPS2872 flight status page for this flight to view local times or setup timezone preferences in your user account.

Time Position Orientation Groundspeed Altitude Reporting Facility
EDT Latitude Longitude Course Direction KTS MPH feet Rate Location/Type
Tue 04:05:40 PM 38.0758 -85.8051 270° West 269 310 6,000  Level FlightAware ADS-B
Tue 04:06:34 PM 38.0759 -85.8805 267° West 276 318 8,900 2,588 Climbing FlightAware ADS-B
Tue 04:07:22 PM 38.0717 -85.9708 266° West 305 351 10,400 1,671 Climbing FlightAware ADS-B (EPWR / WRO)
Tue 04:07:53 PM 38.0686 -86.0265 265° West 335 386 11,100 2,978 Climbing FlightAware ADS-B (EPWR / WRO)
Tue 04:09:39 PM 38.0566 -86.2192 265° West 354 407 17,200 3,441 Climbing FlightAware ADS-B
Tue 04:10:09 PM 38.0506 -86.3041 264° West 360 414 18,900 3,441 Climbing FlightAware ADS-B (EPWR / WRO)
Tue 04:10:47 PM 38.0441 -86.3840 264° West 357 411 21,100 3,000 Climbing FlightAware ADS-B (EPWR / WRO)
Tue 04:11:17 PM 38.0389 -86.4484 265° West 367 422 22,300 2,541 Climbing FlightAware ADS-B (EPWR / WRO)
Tue 04:12:38 PM 38.0245 -86.6278 264° West 382 440 25,800 2,364 Climbing FlightAware ADS-B
Tue 04:13:29 PM 38.0172 -86.7153 264° West 381 438 27,500 2,549 Climbing Indianapolis Center
Tue 04:14:31 PM 38.0081 -86.8497 265° West 376 433 30,600 2,177 Climbing Indianapolis Center
Tue 04:15:33 PM 38.0278 -86.9786 281° West 369 425 32,000 677 Climbing Indianapolis Center
Tue 04:16:35 PM 38.0567 -87.1281 284° West 361 415 32,000  Level Indianapolis Center
Tue 04:17:38 PM 38.0803 -87.2542 283° West 361 415 32,000  Level Indianapolis Center
Tue 04:18:40 PM 38.1039 -87.3808 283° West 363 418 32,000  Level Indianapolis Center
Tue 04:19:42 PM 38.1275 -87.5081 283° West 364 419 32,000  Level Indianapolis Center
Tue 04:20:44 PM 38.1508 -87.6344 283° West 365 420 32,000  Level Indianapolis Center
Tue 04:21:46 PM 38.1742 -87.7614 283° West 365 420 32,000  Level Indianapolis Center
Tue 04:22:48 PM 38.1969 -87.8875 283° West 365 420 32,000  Level Indianapolis Center
Tue 04:23:50 PM 38.2197 -88.0133 283° West 364 419 32,000  Level Indianapolis Center
Tue 04:24:52 PM 38.2469 -88.1644 283° West 364 419 32,000  Level Indianapolis Center
Tue 04:25:49 PM 38.2661 -88.2658 284° West 365 420 32,000  Level Kansas City Center
Tue 04:26:51 PM 38.2883 -88.3906 283° West 363 418 32,000  Level Kansas City Center
Tue 04:27:54 PM 38.3103 -88.5142 283° West 361 415 32,000  Level Kansas City Center
Tue 04:28:55 PM 38.3364 -88.6644 283° West 361 415 32,000  Level Kansas City Center
Tue 04:29:58 PM 38.3561 -88.7936 281° West 362 417 32,000  Level Kansas City Center
Tue 04:30:59 PM 38.3783 -88.9189 283° West 363 418 32,000  Level Kansas City Center
Tue 04:32:02 PM 38.4011 -89.0531 282° West 363 418 32,000  Level Kansas City Center
Tue 04:33:03 PM 38.4217 -89.1772 282° West 360 414 32,000  Level Kansas City Center
Tue 04:34:06 PM 38.4344 -89.3108 277° West 356 410 32,000  Level Kansas City Center
Tue 04:35:08 PM 38.4444 -89.4147 277° West 353 406 32,000  Level Kansas City Center
Tue 04:36:11 PM 38.4592 -89.5625 277° West 352 405 32,000  Level Kansas City Center
Tue 04:37:13 PM 38.4706 -89.6833 277° West 348 400 32,000  Level Kansas City Center
Tue 04:38:13 PM 38.4819 -89.8050 277° West 348 400 32,000  Level Kansas City Center
Tue 04:39:16 PM 38.4936 -89.9261 277° West 348 400 32,000  Level Kansas City Center
Tue 04:40:18 PM 38.5053 -90.0478 277° West 346 398 32,000  Level Kansas City Center
Tue 04:41:22 PM 38.5203 -90.1692 279° West 345 397 32,000  Level Kansas City Center
Tue 04:42:24 PM 38.5436 -90.3161 282° West 345 397 32,000  Level Kansas City Center
Tue 04:43:24 PM 38.5636 -90.4397 282° West 347 399 32,000  Level Kansas City Center
Tue 04:44:28 PM 38.5792 -90.5617 279° West 348 400 32,000  Level Kansas City Center
Tue 04:45:28 PM 38.5956 -90.6847 280° West 348 400 32,000  Level Kansas City Center
Tue 04:46:30 PM 38.6131 -90.8108 280° West 348 400 32,000  Level Kansas City Center
Tue 04:47:33 PM 38.6294 -90.9339 280° West 348 400 32,000  Level Kansas City Center
Tue 04:48:34 PM 38.6461 -91.0544 280° West 348 400 32,000  Level Kansas City Center
Tue 04:49:38 PM 38.6622 -91.1758 280° West 347 399 32,000  Level Kansas City Center
Tue 04:50:38 PM 38.6786 -91.2972 280° West 347 399 32,000  Level Kansas City Center
Tue 04:51:42 PM 38.6975 -91.4386 280° West 347 399 32,000  Level Kansas City Center
Tue 04:52:42 PM 38.7136 -91.5631 279° West 347 399 32,000  Level Kansas City Center
Tue 04:53:46 PM 38.7283 -91.6833 279° West 346 398 32,000  Level Kansas City Center
Tue 04:54:46 PM 38.7439 -91.8019 280° West 346 398 32,000  Level Kansas City Center
Tue 04:55:50 PM 38.7619 -91.9483 279° West 346 398 32,000  Level Kansas City Center
Tue 04:56:51 PM 38.7769 -92.0706 279° West 346 398 32,000  Level Kansas City Center
Tue 04:57:55 PM 38.7914 -92.1931 279° West 346 398 32,000  Level Kansas City Center
Tue 04:58:55 PM 38.8072 -92.3172 279° West 347 399 32,000  Level Kansas City Center
Tue 04:59:59 PM 38.8219 -92.4406 279° West 348 400 32,000  Level Kansas City Center
Tue 05:00:59 PM 38.8367 -92.5653 279° West 349 402 32,000  Level Kansas City Center
Tue 05:02:03 PM 38.8550 -92.7169 279° West 353 406 32,000  Level Kansas City Center
Tue 05:07:51 PM 38.9428 -93.4765 278° West 370 426 32,000  Level FlightAware ADS-B (EGNC / CAX)
Tue 05:10:41 PM 38.9834 -93.8452 278° West 373 429 32,000  Level FlightAware ADS-B (EGNC / CAX)
Tue 05:12:11 PM 38.9941 -94.0417 261° West 370 426 32,000  Level FlightAware ADS-B (EGNC / CAX)
Tue 05:12:53 PM 38.9817 -94.1342 260° West 370 426 32,000 686 Level FlightAware ADS-B (EGNC / CAX)
Tue 05:15:06 PM 38.9408 -94.4197 259° West 393 452 34,000 553 Climbing FlightAware ADS-B (EGNC / CAX)
Tue 05:16:30 PM 38.9153 -94.6000 259° West 390 449 34,000 297 Level Kansas City Center
Tue 05:21:50 PM 38.8099 -95.3118 259° West 392 451 36,000 330 Climbing FlightAware ADS-B (EGNC / CAX)
Tue 05:22:34 PM 38.7915 -95.4338 259° West 394 453 36,000  Level FlightAware ADS-B (EGNC / CAX)
Tue 05:23:10 PM 38.7789 -95.5161 259° West 395 455 36,000  Level FlightAware ADS-B (EGNC / CAX)
Tue 05:23:52 PM 38.7646 -95.6098 259° West 394 453 36,000  Level FlightAware ADS-B (EGNC / CAX)
Tue 05:24:29 PM 38.7531 -95.6847 259° West 392 451 36,000  Level FlightAware ADS-B (EGNC / CAX)
Tue 05:25:15 PM 38.7348 -95.8019 259° West 391 450 36,000  Level FlightAware ADS-B (EGNC / CAX)
Tue 05:25:53 PM 38.7254 -95.8626 259° West 388 447 36,000  Level FlightAware ADS-B (EGNC / CAX)
Tue 05:26:34 PM 38.7080 -95.9736 259° West 382 440 36,000  Level FlightAware ADS-B (EGNC / CAX)
Tue 05:27:14 PM 38.6982 -96.0359 259° West 381 438 36,000  Level FlightAware ADS-B (EGNC / CAX)
Tue 05:27:53 PM 38.6828 -96.1378 259° West 381 438 36,000  Level Kansas City Center
Tue 05:28:56 PM 38.6633 -96.2636 259° West 380 437 36,000  Level Kansas City Center
Tue 05:29:57 PM 38.6394 -96.4103 258° West 378 435 36,000  Level Kansas City Center
Tue 05:30:58 PM 38.6192 -96.5353 258° West 378 435 36,000  Level Kansas City Center
Tue 05:32:01 PM 38.5953 -96.6817 258° West 378 435 36,000  Level Kansas City Center
Tue 05:33:03 PM 38.5722 -96.8175 258° West 378 435 36,000  Level Kansas City Center
Tue 05:34:04 PM 38.5494 -96.9547 258° West 378 435 36,000  Level Kansas City Center
Tue 05:35:08 PM 38.5269 -97.0914 258° West 377 434 36,000  Level Kansas City Center
Tue 05:36:09 PM 38.5061 -97.2158 258° West 375 432 36,000  Level Kansas City Center
Tue 05:37:12 PM 38.4825 -97.3506 257° West 374 430 36,000  Level Kansas City Center
Tue 05:38:14 PM 38.4600 -97.4850 258° West 374 430 36,000  Level Kansas City Center
Tue 05:39:14 PM 38.4364 -97.6194 257° West 373 429 36,000  Level Kansas City Center
Tue 05:40:18 PM 38.4136 -97.7547 258° West 373 429 36,000  Level Kansas City Center
Tue 05:41:21 PM 38.3897 -97.8911 257° West 376 433 36,000  Level Kansas City Center
Tue 05:42:22 PM 38.3661 -98.0278 258° West 377 434 36,000  Level Kansas City Center
Tue 05:43:22 PM 38.3436 -98.1539 257° West 378 435 36,000  Level Kansas City Center
Tue 05:44:26 PM 38.3192 -98.2931 257° West 385 443 36,000  Level Kansas City Center
Tue 05:45:29 PM 38.2931 -98.4303 256° West 384 442 36,000  Level Kansas City Center
Tue 05:46:30 PM 38.2678 -98.5694 257° West 388 447 36,000  Level Kansas City Center
Tue 05:47:33 PM 38.2422 -98.7083 257° West 386 444 36,000  Level Kansas City Center
Tue 05:48:34 PM 38.2181 -98.8411 257° West 386 444 36,000  Level Kansas City Center
Tue 05:49:35 PM 38.1956 -98.9667 257° West 384 442 36,000  Level Kansas City Center
Tue 05:50:39 PM 38.1706 -99.1153 258° West 384 442 36,000  Level Kansas City Center
Tue 05:51:40 PM 38.1447 -99.2383 255° West 384 442 36,000  Level Kansas City Center
Tue 05:52:44 PM 38.1172 -99.3831 256° West 382 440 36,000  Level Kansas City Center
Tue 05:53:44 PM 38.0944 -99.5078 257° West 382 440 36,000  Level Kansas City Center
Tue 05:54:47 PM 38.0661 -99.6533 256° West 382 440 36,000  Level Kansas City Center
Tue 05:55:49 PM 38.0447 -99.7800 258° West 382 440 36,000  Level Kansas City Center
Tue 05:56:52 PM 38.0161 -99.9261 256° West 382 440 36,000  Level Kansas City Center
Tue 05:57:52 PM 37.9850 -100.0497 252° West 382 440 36,000  Level Kansas City Center
Tue 05:58:56 PM 37.9311 -100.1844 243° Southwest 383 441 36,000  Level Kansas City Center
Tue 05:59:57 PM 37.8861 -100.3014 244° Southwest 384 442 36,000  Level Kansas City Center
Tue 06:00:59 PM 37.8331 -100.4394 244° Southwest 385 443 36,000  Level Kansas City Center
Tue 06:02:00 PM 37.7864 -100.5558 243° Southwest 391 450 36,000  Level Kansas City Center
Tue 06:03:03 PM 37.7403 -100.6789 245° Southwest 390 449 36,000  Level Kansas City Center
Tue 06:04:04 PM 37.6928 -100.8006 244° Southwest 389 448 36,000  Level Kansas City Center
Tue 06:05:08 PM 37.6356 -100.9453 244° Southwest 388 447 36,000  Level Kansas City Center
Tue 06:06:09 PM 37.5869 -101.0700 244° Southwest 389 448 36,000  Level Kansas City Center
Tue 06:07:13 PM 37.5386 -101.1933 244° Southwest 390 449 36,000  Level Kansas City Center
Tue 06:08:14 PM 37.4858 -101.3283 244° Southwest 389 448 36,000  Level Kansas City Center
Tue 06:09:14 PM 37.4400 -101.4447 244° Southwest 388 447 36,000  Level Kansas City Center
Tue 06:10:18 PM 37.3944 -101.5594 243° Southwest 387 445 36,000  Level Kansas City Center
Tue 06:11:19 PM 37.3408 -101.6936 243° Southwest 385 443 36,000  Level Kansas City Center
Tue 06:12:22 PM 37.2947 -101.8058 243° Southwest 382 440 36,000  Level Kansas City Center
Tue 06:13:23 PM 37.2417 -101.9394 244° Southwest 382 440 36,000  Level Kansas City Center
Tue 06:14:27 PM 37.1958 -102.0544 243° Southwest 382 440 36,000  Level Kansas City Center
Tue 06:15:27 PM 37.1417 -102.1883 243° Southwest 382 440 36,000  Level Kansas City Center
Tue 06:16:31 PM 37.0950 -102.3008 243° Southwest 382 440 36,000  Level Kansas City Center
Tue 06:17:32 PM 37.0417 -102.4336 243° Southwest 381 438 36,000  Level Kansas City Center
Tue 06:18:33 PM 36.9956 -102.5472 243° Southwest 381 438 36,000  Level Kansas City Center
Tue 06:19:37 PM 36.9414 -102.6767 242° Southwest 381 438 36,000  Level Kansas City Center
Tue 06:20:37 PM 36.8953 -102.7906 243° Southwest 381 438 36,000  Level Kansas City Center
Tue 06:22:01 PM 36.8267 -102.9558 243° Southwest 376 433 36,000  Level Albuquerque Center
Tue 06:23:03 PM 36.7731 -103.0844 243° Southwest 372 428 36,000  Level Albuquerque Center
Tue 06:24:05 PM 36.7269 -103.1944 242° Southwest 372 428 36,000  Level Albuquerque Center
Tue 06:25:07 PM 36.6814 -103.3042 243° Southwest 372 428 36,000  Level Albuquerque Center
Tue 06:26:09 PM 36.6314 -103.4353 245° Southwest 371 427 36,000  Level Albuquerque Center
Tue 06:27:10 PM 36.5944 -103.5558 249° West 370 426 36,000  Level Albuquerque Center
Tue 06:28:12 PM 36.5578 -103.6764 249° West 371 427 36,000  Level Albuquerque Center
Tue 06:29:14 PM 36.5200 -103.7967 249° West 372 428 36,000  Level Albuquerque Center
Tue 06:30:16 PM 36.4817 -103.9178 249° West 375 432 36,000  Level Albuquerque Center
Tue 06:31:17 PM 36.4433 -104.0389 249° West 373 429 36,000  Level Albuquerque Center
Tue 06:32:19 PM 36.3992 -104.1781 249° West 367 422 36,000  Level Albuquerque Center
Tue 06:33:21 PM 36.3617 -104.2956 248° West 363 418 36,000  Level Albuquerque Center
Tue 06:34:23 PM 36.3242 -104.4114 248° West 360 414 36,000  Level Albuquerque Center
Tue 06:35:24 PM 36.2869 -104.5275 248° West 360 414 36,000 -484 Level Albuquerque Center
Tue 06:40:35 PM 36.0956 -105.1148 248° West 344 396 33,000 -844 Descending FlightAware ADS-B
Tue 06:43:06 PM 35.9996 -105.4051 248° West 361 415 29,500 -1,217 Descending FlightAware ADS-B
Tue 06:44:12 PM 35.9595 -105.5253 248° West 344 396 28,600 -661 Descending FlightAware ADS-B
Tue 06:45:13 PM 35.9227 -105.6358 248° West 340 391 28,100 -491 Descending FlightAware ADS-B
Tue 06:46:02 PM 35.8932 -105.7235 248° West 342 394 27,700 -462 Descending FlightAware ADS-B
Tue 06:47:10 PM 35.8515 -105.8473 248° West 343 395 27,200 -569 Descending FlightAware ADS-B
Tue 06:47:58 PM 35.8227 -105.9325 247° West 339 390 26,600 -750 Descending FlightAware ADS-B
Tue 06:51:26 PM 35.6981 -106.2987 247° West 332 382 24,000 -1,328 Descending FlightAware ADS-B
Tue 06:54:13 PM 35.5879 -106.5814 217° Southwest 353 406 18,300 -2,063 Descending FlightAware ADS-B
Tue 06:55:07 PM 35.5025 -106.6227 199° South 363 418 16,400 -2,114 Descending FlightAware ADS-B (KAEG)
Tue 06:55:41 PM 35.4961 -106.6253 199° South 360 414 15,200 -1,976 Descending FlightAware ADS-B (KAEG)
Tue 06:56:29 PM 35.3741 -106.6764 200° South 354 407 13,700 -1,977 Descending FlightAware ADS-B (KAEG)
Tue 06:57:09 PM 35.3115 -106.7030 199° South 353 406 12,300 -1,800 Descending FlightAware ADS-B (KAEG)
Tue 06:57:49 PM 35.2598 -106.7249 199° South 340 391 11,300 -1,600 Descending FlightAware ADS-B (KAEG)
Tue 06:58:09 PM 35.2216 -106.7361 182° South 334 384 10,700 -1,833 Descending FlightAware ADS-B (KAEG)
Tue 06:58:25 PM 35.1967 -106.7318 157° South 319 367 10,200 -1,077 Descending FlightAware ADS-B (KAEG)
Tue 06:58:48 PM 35.1702 -106.7103 130° Southeast 297 342 10,000 -977 Descending FlightAware ADS-B (KAEG)
Tue 06:59:08 PM 35.1527 -106.6832 128° Southeast 286 329 9,500 -1,385 Descending FlightAware ADS-B (KAEG)
Tue 06:59:27 PM 35.1391 -106.6631 130° Southeast 278 320 9,100 -600 Descending FlightAware ADS-B (KAEG)
Tue 06:59:48 PM 35.1234 -106.6346 123° Southeast 266 306 9,100 -439 Level FlightAware ADS-B (KAEG)
Tue 07:00:08 PM 35.1182 -106.6074 99° East 245 282 8,800 -1,139 Descending FlightAware ADS-B (KAEG)
Tue 07:01:07 PM 35.1097 -106.5483 99° East 237 273 7,600 -1,308 Descending Albuquerque Center
Tue 07:01:26 PM 35.0856 -106.5269 144° Southeast 192 221 7,100 -968 Descending Albuquerque Center
Tue 07:02:09 PM 35.0536 -106.5214 172° South 184 212 6,600 -764 Descending Albuquerque Center
Tue 07:02:21 PM 35.0433 -106.5300 214° Southwest 167 192 6,400 -1,065 Descending Albuquerque Center
Tue 07:03:11 PM 35.0439 -106.5703 271° West 159 183 5,500 -1,080 Descending Albuquerque Center

Login

Don't have an account? Register now (free) for customized features, flight alerts, and more!